Beloretsk Airport


Codes: UWUB/BCX
Name: Beloretsk Airport
City: Beloretsk
Country: Russia
Elevation: 1827 ft.

Photos at Beloretsk Airport


   Photos courtesy of SpottingLog. You can add your own sightings and photos by signing up for a free trial today.



No photos found.

Weather at Beloretsk Airport


Time (UTC)DescriptionTempratureWindCloud coverageVisibilityPressureHumidity
26-Jun-2024 00:00Overcast Clouds8°C4 mph, W100%10000m1002hPa95%
26-Jun-2024 03:00Overcast Clouds9°C4 mph, W100%10000m1003hPa92%
26-Jun-2024 06:00Overcast Clouds15°C9 mph, W98%10000m1002hPa64%
26-Jun-2024 09:00Overcast Clouds14°C7 mph, SW97%10000m1004hPa69%
26-Jun-2024 12:00Light Rain16°C7 mph, W92%10000m1004hPa56%
26-Jun-2024 15:00Overcast Clouds14°C4 mph, W99%10000m1004hPa77%
26-Jun-2024 18:00Overcast Clouds10°C2 mph, W91%10000m1005hPa90%
26-Jun-2024 21:00Overcast Clouds9°C2 mph, SW100%10000m1005hPa94%
27-Jun-2024 00:00Broken Clouds8°C2 mph, SW70%10000m1006hPa96%
27-Jun-2024 03:00Scattered Clouds13°C4 mph, W30%10000m1005hPa80%
27-Jun-2024 06:00Scattered Clouds17°C9 mph, W38%10000m1005hPa59%
27-Jun-2024 09:00Broken Clouds17°C11 mph, W67%10000m1006hPa58%
27-Jun-2024 12:00Broken Clouds17°C7 mph, W83%10000m1006hPa55%
27-Jun-2024 15:00Overcast Clouds15°C2 mph, W100%10000m1007hPa75%
27-Jun-2024 18:00Overcast Clouds10°C2 mph, NW99%10000m1008hPa88%
27-Jun-2024 21:00Overcast Clouds11°C4 mph, NE100%10000m1007hPa85%
28-Jun-2024 00:00Overcast Clouds11°C4 mph, NE100%10000m1006hPa90%
28-Jun-2024 03:00Light Rain11°C4 mph, N100%3538m1004hPa98%
28-Jun-2024 06:00Moderate Rain12°C13 mph, NE100%7457m1002hPa97%
28-Jun-2024 09:00Moderate Rain12°C9 mph, NE100%5257m1002hPa98%
28-Jun-2024 12:00Light Rain12°C7 mph, NE100%10000m1001hPa97%
28-Jun-2024 15:00Light Rain12°C2 mph, NW100%10000m1001hPa98%
28-Jun-2024 18:00Light Rain12°C2 mph, W100%10000m1000hPa99%
28-Jun-2024 21:00Light Rain11°C2 mph, W100%10000m999hPa99%
29-Jun-2024 00:00Moderate Rain11°C2 mph, NW100%234m998hPa100%
29-Jun-2024 03:00Moderate Rain12°C2 mph, W100%589m998hPa99%
29-Jun-2024 06:00Moderate Rain13°C2 mph, N100%10000m999hPa95%
29-Jun-2024 09:00Light Rain11°C7 mph, NE100%10000m1002hPa96%
29-Jun-2024 12:00Light Rain10°C4 mph, NE100%10000m1003hPa94%
29-Jun-2024 15:00Light Rain8°C7 mph, N100%10000m1005hPa95%
29-Jun-2024 18:00Light Rain8°C7 mph, NE100%10000m1006hPa95%
29-Jun-2024 21:00Light Rain8°C4 mph, N100%10000m1007hPa97%
30-Jun-2024 00:00Overcast Clouds8°C4 mph, N100%10000m1007hPa97%
30-Jun-2024 03:00Light Rain8°C7 mph, N100%10000m1008hPa96%
30-Jun-2024 06:00Overcast Clouds10°C9 mph, N100%10000m1009hPa87%
30-Jun-2024 09:00Overcast Clouds11°C4 mph, N100%10000m1009hPa76%
30-Jun-2024 12:00Overcast Clouds17°C9 mph, NE85%10000m1006hPa54%
30-Jun-2024 15:00Overcast Clouds14°C4 mph, N100%10000m1007hPa64%
30-Jun-2024 18:00Broken Clouds9°C2 mph, NW84%10000m1009hPa84%
30-Jun-2024 21:00Clear Sky7°C2 mph, NW10%10000m1008hPa90%